Time;durP1;ratioP1;P1;durP2;ratioP2;P2;SDS_P1;SDS_P2;PMS_P1;PMS_P2;Temp;Humidity;BMP_temperature;BMP_pressure;BME280_temperature;BME280_humidity;BME280_pressure;Samples;Min_cycle;Max_cycle;Signal;HPM_P1;HPM_P2
2021/11/02 00:02:05;;;;;;;5.20;4.40;;;;;;;5.43;88.19;99961.66;5112697;28;20012;-62
2021/11/02 00:04:31;;;;;;;5.93;4.13;;;;;;;5.39;88.06;99961.09;5112710;28;20031;-65
2021/11/02 00:06:57;;;;;;;6.60;4.70;;;;;;;5.37;88.65;99965.69;5112490;28;20023;-65
2021/11/02 00:09:24;;;;;;;6.18;4.35;;;;;;;5.37;88.66;99956.91;5112588;28;20055;-65
2021/11/02 00:11:50;;;;;;;5.50;4.17;;;;;;;5.34;88.65;99962.50;5111883;28;20024;-65
2021/11/02 00:14:15;;;;;;;5.50;4.90;;;;;;;5.32;88.62;99960.00;5112431;28;20039;-63
2021/11/02 00:16:43;;;;;;;6.13;4.73;;;;;;;5.33;89.00;99961.66;5112462;28;20039;-63
2021/11/02 00:19:09;;;;;;;7.33;4.43;;;;;;;5.34;89.13;99951.94;5094589;28;20107;-63
2021/11/02 00:21:40;;;;;;;5.85;4.82;;;;;;;5.34;88.80;99957.22;5112189;28;20108;-63
2021/11/02 00:26:37;;;;;;;5.03;4.17;;;;;;;5.37;88.67;99956.91;5111866;28;20131;-63
2021/11/02 00:29:04;;;;;;;5.75;4.65;;;;;;;5.37;88.32;99954.28;5112092;28;20118;-63
2021/11/02 00:31:29;;;;;;;5.13;4.50;;;;;;;5.34;88.59;99951.94;5111955;28;20058;-63
2021/11/02 00:33:54;;;;;;;7.60;4.70;;;;;;;5.31;89.07;99950.41;5112093;28;20039;-63
2021/11/02 00:36:20;;;;;;;6.80;4.30;;;;;;;5.31;89.02;99950.41;5111926;28;20077;-64
2021/11/02 00:38:46;;;;;;;7.27;4.63;;;;;;;5.31;88.97;99940.66;5111985;28;20028;-63
2021/11/02 00:41:11;;;;;;;6.53;4.53;;;;;;;5.33;89.06;99940.50;5111907;28;20111;-63
2021/11/02 00:43:37;;;;;;;7.10;4.63;;;;;;;5.34;88.95;99942.19;5093572;28;20613;-64
2021/11/02 00:46:02;;;;;;;8.27;5.27;;;;;;;5.31;89.25;99940.66;5111915;28;20028;-64
2021/11/02 00:48:28;;;;;;;7.53;5.03;;;;;;;5.34;89.50;99946.63;5111723;28;20466;-63
2021/11/02 00:50:54;;;;;;;6.43;4.70;;;;;;;5.32;88.98;99942.31;5111712;28;20027;-63
2021/11/02 00:53:19;;;;;;;7.30;4.68;;;;;;;5.31;88.94;99945.13;5112013;28;20030;-63
2021/11/02 00:55:45;;;;;;;8.03;4.90;;;;;;;5.28;89.41;99946.22;5093007;28;20036;-63
2021/11/02 00:58:11;;;;;;;5.63;4.15;;;;;;;5.25;89.20;99943.88;5111721;28;20042;-64
2021/11/02 01:00:37;;;;;;;5.25;4.60;;;;;;;5.28;89.86;99943.59;5110444;28;20460;-63
2021/11/02 01:03:05;;;;;;;6.27;4.87;;;;;;;5.29;89.40;99947.03;5111407;28;20032;-63
2021/11/02 01:05:31;;;;;;;6.33;4.47;;;;;;;5.34;89.54;99946.63;5111525;28;20026;-62
2021/11/02 01:07:56;;;;;;;7.57;4.80;;;;;;;5.35;89.76;99949.13;5111365;28;20023;-63
2021/11/02 01:10:22;;;;;;;6.40;4.87;;;;;;;5.37;89.45;99949.00;5111814;28;20024;-63
2021/11/02 01:12:49;;;;;;;5.85;4.22;;;;;;;5.39;89.70;99937.31;5111495;28;20270;-63
2021/11/02 01:15:18;;;;;;;5.80;4.47;;;;;;;5.42;89.62;99944.94;5111247;28;20031;-63
2021/11/02 01:17:44;;;;;;;5.30;4.73;;;;;;;5.44;89.42;99947.47;5111362;28;20032;-62
2021/11/02 01:20:13;;;;;;;8.35;5.30;;;;;;;5.43;89.63;99936.06;5111854;28;20030;-63
2021/11/02 01:22:40;;;;;;;7.77;5.30;;;;;;;5.45;89.25;99935.91;5111241;28;20104;-62
2021/11/02 01:25:07;;;;;;;7.40;4.43;;;;;;;5.44;89.11;99947.47;5109971;22;20540;-64
2021/11/02 01:27:34;;;;;;;5.90;4.73;;;;;;;5.43;89.17;99937.88;5072500;28;20056;-63
2021/11/02 01:29:59;;;;;;;8.10;5.53;;;;;;;5.43;89.33;99936.06;5090782;28;20031;-63
2021/11/02 01:32:25;;;;;;;5.80;4.67;;;;;;;5.47;89.70;99936.63;5090586;28;20028;-63
2021/11/02 01:34:51;;;;;;;5.70;4.70;;;;;;;5.51;89.45;99947.75;5090734;28;20023;-64
2021/11/02 01:37:16;;;;;;;8.30;5.07;;;;;;;5.50;89.62;99941.59;5090656;28;20022;-64
2021/11/02 01:39:42;;;;;;;7.30;4.53;;;;;;;5.56;89.76;99945.53;5090938;28;20111;-63
2021/11/02 01:42:07;;;;;;;5.25;4.60;;;;;;;5.59;89.32;99934.66;5090830;28;20032;-62
2021/11/02 01:44:33;;;;;;;7.88;4.43;;;;;;;5.63;89.16;99938.69;5090506;28;20061;-64
2021/11/02 01:46:58;;;;;;;6.60;4.85;;;;;;;5.63;88.81;99936.03;5090685;28;20021;-64
2021/11/02 01:49:24;;;;;;;5.80;4.72;;;;;;;5.63;89.04;99931.59;5090617;28;20383;-64
2021/11/02 01:51:50;;;;;;;6.80;4.53;;;;;;;5.62;89.05;99937.84;5090442;28;20548;-63
2021/11/02 01:54:17;;;;;;;7.60;4.93;;;;;;;5.66;89.10;99938.41;5090643;28;20036;-64
2021/11/02 01:56:46;;;;;;;6.43;5.10;;;;;;;5.68;88.94;99940.91;5072279;28;20024;-63
2021/11/02 01:59:13;;;;;;;6.83;4.80;;;;;;;5.70;88.94;99934.50;5090459;28;20028;-63
2021/11/02 02:01:48;;;;;;;5.83;4.77;;;;;;;5.73;88.93;99938.69;5090514;28;20073;-63
2021/11/02 02:04:19;;;;;;;6.23;4.83;;;;;;;5.75;89.05;99937.56;5090468;28;20107;-63
2021/11/02 02:07:08;;;;;;;7.40;4.93;;;;;;;5.75;88.63;99940.22;5090223;28;20081;-63
2021/11/02 02:09:49;;;;;;;6.90;4.43;;;;;;;5.73;88.56;99938.69;5092370;28;20042;-62
2021/11/02 02:12:31;;;;;;;7.30;5.30;;;;;;;5.70;88.40;99938.94;5094298;28;20020;-63
2021/11/02 02:15:22;;;;;;;8.87;5.30;;;;;;;5.70;88.66;99937.16;5094081;28;20028;-63
2021/11/02 02:18:05;;;;;;;7.13;5.47;;;;;;;5.67;89.01;99931.31;5011745;28;20116;-63
2021/11/02 02:20:56;;;;;;;6.07;4.93;;;;;;;5.65;89.17;99929.63;5011789;28;20044;-64
2021/11/02 02:23:35;;;;;;;9.03;5.53;;;;;;;5.64;88.72;99930.59;5011592;28;20045;-62
2021/11/02 02:26:19;;;;;;;7.63;5.27;;;;;;;5.63;88.77;99933.41;5011194;28;20509;-63
2021/11/02 02:28:46;;;;;;;6.80;4.97;;;;;;;5.60;88.85;99934.50;5011240;28;20046;-63
2021/11/02 02:31:15;;;;;;;6.23;5.20;;;;;;;5.60;89.08;99928.41;5011551;28;20037;-63
2021/11/02 02:33:46;;;;;;;6.17;4.90;;;;;;;5.58;89.33;99932.97;5011734;28;20049;-64
2021/11/02 02:36:13;;;;;;;7.83;5.57;;;;;;;5.57;89.67;99918.94;5011642;28;20075;-64
2021/11/02 02:38:42;;;;;;;8.80;5.47;;;;;;;5.56;89.57;99919.09;5011322;28;20042;-63
2021/11/02 02:41:09;;;;;;;7.80;5.30;;;;;;;5.54;89.73;99923.66;5011290;28;20124;-63
2021/11/02 02:43:39;;;;;;;8.50;5.87;;;;;;;5.52;89.42;99920.34;5011039;28;20065;-63
2021/11/02 02:46:06;;;;;;;8.97;5.73;;;;;;;5.51;89.77;99916.03;5011358;28;20434;-63
2021/11/02 02:48:33;;;;;;;8.33;5.73;;;;;;;5.54;89.96;99915.75;5010898;28;20720;-62
2021/11/02 02:50:58;;;;;;;8.18;5.88;;;;;;;5.52;89.77;99912.44;5011118;28;20116;-62
2021/11/02 02:53:25;;;;;;;11.07;6.70;;;;;;;5.51;89.98;99919.50;5010963;28;20117;-64
2021/11/02 02:55:53;;;;;;;10.60;5.53;;;;;;;5.49;89.89;99909.06;5088671;28;20442;-63
2021/11/02 02:58:19;;;;;;;6.73;5.63;;;;;;;5.47;89.87;99904.91;5093344;28;20024;-64
2021/11/02 03:00:46;;;;;;;10.40;6.10;;;;;;;5.44;89.63;99897.28;5093529;28;20032;-64
2021/11/02 03:03:13;;;;;;;8.80;6.13;;;;;;;5.42;89.77;99896.56;5093432;28;20387;-64
2021/11/02 03:05:38;;;;;;;10.40;6.53;;;;;;;5.38;89.93;99893.34;5093665;28;20020;-64
2021/11/02 03:08:04;;;;;;;9.15;5.93;;;;;;;5.34;89.87;99899.09;5093533;28;20024;-63
2021/11/02 03:10:31;;;;;;;9.15;6.20;;;;;;;5.32;90.32;99893.94;5093356;28;20431;-64
2021/11/02 03:13:02;;;;;;;11.52;6.28;;;;;;;5.31;90.56;99892.28;5093239;28;20049;-63
2021/11/02 03:49:42;;;;;;;9.35;5.65;;;;;;;5.23;90.79;99929.94;4894503;29;20469;-63
2021/11/02 03:54:53;;;;;;;8.83;6.27;;;;;;;5.19;91.00;99923.28;4894544;29;20063;-64
2021/11/02 04:25:13;;;;;;;6.53;5.60;;;;;;;5.11;91.49;99941.63;4991040;28;20085;-63
2021/11/02 05:49:49;;;;;;;10.40;6.60;;;;;;;4.78;92.16;99952.44;5090873;28;20094;-64
2021/11/02 06:00:20;;;;;;;9.63;5.83;;;;;;;4.85;91.67;99955.34;5090827;28;20540;-65
2021/11/02 06:30:51;;;;;;;11.63;7.10;;;;;;;5.09;91.75;99959.41;5027249;28;20116;-64
2021/11/02 06:50:14;;;;;;;14.20;7.57;;;;;;;5.29;91.79;99965.53;5033927;28;20090;-64
2021/11/02 06:53:03;;;;;;;16.33;8.10;;;;;;;5.33;91.87;99969.56;5067140;28;20174;-63
2021/11/02 06:56:00;;;;;;;12.57;7.43;;;;;;;5.34;91.93;99962.50;5068462;28;20045;-64
2021/11/02 07:18:06;;;;;;;10.30;6.70;;;;;;;5.76;90.46;99978.88;5070093;28;20560;-63
2021/11/02 07:21:01;;;;;;;10.87;6.70;;;;;;;5.82;90.49;99974.84;5074771;28;20040;-65
2021/11/02 07:23:35;;;;;;;15.03;7.23;;;;;;;5.84;90.29;99978.16;5092484;28;20036;-65
2021/11/02 07:26:28;;;;;;;11.17;7.27;;;;;;;5.86;90.76;99978.88;5092891;28;20170;-64
2021/11/02 07:29:29;;;;;;;12.50;7.27;;;;;;;5.89;90.24;99978.56;5092898;28;20474;-65
2021/11/02 08:47:40;;;;;;;14.30;8.70;;;;;;;6.95;88.13;99999.50;5091633;28;20051;-67
2021/11/02 08:50:09;;;;;;;13.43;9.57;;;;;;;6.87;87.82;100004.72;5074851;28;20032;-64
2021/11/02 08:52:36;;;;;;;15.30;9.70;;;;;;;6.85;87.87;100000.56;5091441;28;20016;-64
2021/11/02 08:55:05;;;;;;;18.30;9.93;;;;;;;6.85;88.27;99998.72;5091231;28;20089;-65
2021/11/02 08:57:31;;;;;;;15.27;10.53;;;;;;;6.88;88.26;100001.09;5091163;28;20046;-65
2021/11/02 08:59:56;;;;;;;12.32;8.85;;;;;;;6.94;88.55;99997.00;5091042;28;20024;-65
2021/11/02 09:02:27;;;;;;;15.80;9.82;;;;;;;6.97;88.79;100002.00;5091538;28;20142;-65
2021/11/02 09:05:14;;;;;;;14.87;10.17;;;;;;;7.04;88.66;99997.78;5091103;28;20120;-65
2021/11/02 09:07:43;;;;;;;14.18;9.60;;;;;;;7.09;88.16;100002.63;5091034;28;20468;-66
2021/11/02 09:10:19;;;;;;;17.33;10.90;;;;;;;7.09;88.00;99999.97;5090907;28;20031;-64
2021/11/02 09:12:49;;;;;;;16.50;11.00;;;;;;;7.09;87.56;99999.97;5091192;28;20024;-65
2021/11/02 09:15:16;;;;;;;15.27;10.40;;;;;;;7.09;87.74;99998.19;5090738;28;20070;-65
2021/11/02 09:17:47;;;;;;;17.20;11.50;;;;;;;7.10;88.03;100004.31;5091127;28;20060;-66
2021/11/02 09:20:14;;;;;;;15.60;10.73;;;;;;;7.13;87.62;100002.19;5090639;28;20024;-66
2021/11/02 09:22:41;;;;;;;18.40;11.70;;;;;;;7.16;87.55;100011.66;5090970;28;20036;-66
2021/11/02 09:25:08;;;;;;;15.73;11.27;;;;;;;7.20;87.38;100006.91;5100899;22;20051;-67
2021/11/02 09:27:35;;;;;;;15.53;11.03;;;;;;;7.22;87.42;100005.78;5090648;28;20077;-66
2021/11/02 09:30:02;;;;;;;16.23;12.33;;;;;;;7.23;87.27;100009.25;5090915;28;20020;-67
2021/11/02 09:32:27;;;;;;;;;;;;;;;7.22;87.35;100016.38;5091387;28;20410;-66
2021/11/02 09:34:53;;;;;;;14.20;10.73;;;;;;;7.17;86.90;100018.63;5090877;28;19919;-67
2021/11/02 09:37:25;;;;;;;;;;;;;;;7.15;87.29;100013.47;5091210;28;20039;-64
2021/11/02 09:39:53;;;;;;;14.10;10.10;;;;;;;7.13;87.53;100009.28;5090597;28;20006;-66
2021/11/02 09:42:59;;;;;;;16.37;12.00;;;;;;;7.12;87.63;100007.66;5090706;28;20113;-67
2021/11/02 09:45:34;;;;;;;20.10;11.33;;;;;;;7.08;87.99;100009.75;5090799;28;20031;-67
2021/11/02 09:48:30;;;;;;;19.47;11.87;;;;;;;7.08;88.19;100003.63;5091283;28;20300;-66
2021/11/02 09:51:04;;;;;;;15.80;10.97;;;;;;;7.11;88.21;100004.16;5090425;28;20032;-65
2021/11/02 09:53:40;;;;;;;19.27;11.67;;;;;;;7.10;88.18;100002.47;5090533;28;20024;-67
2021/11/02 09:56:37;;;;;;;18.27;12.20;;;;;;;7.10;87.82;100007.78;5090630;28;20468;-65
2021/11/02 09:59:02;;;;;;;14.00;10.83;;;;;;;7.10;88.70;100002.47;5090232;28;20292;-65
2021/11/02 10:01:58;;;;;;;19.93;13.20;;;;;;;7.10;88.64;100004.31;5090685;28;20375;-67
2021/11/02 10:04:38;;;;;;;16.67;12.30;;;;;;;7.15;88.42;100002.03;5090572;28;20023;-66
2021/11/02 10:07:36;;;;;;;17.13;10.93;;;;;;;7.21;88.40;100011.19;5090155;28;20039;-65
2021/11/02 10:10:15;;;;;;;16.15;11.27;;;;;;;7.22;88.03;100008.44;5072044;28;20032;-65
2021/11/02 10:13:16;;;;;;;14.33;11.23;;;;;;;7.22;87.99;100000.47;5090395;28;20035;-66
2021/11/02 10:16:02;;;;;;;18.10;11.63;;;;;;;7.23;87.85;100007.41;5090436;28;20119;-67
2021/11/02 10:18:37;;;;;;;18.43;12.40;;;;;;;7.24;87.92;100006.44;5090475;28;20035;-65
2021/11/02 10:21:33;;;;;;;16.70;11.63;;;;;;;7.26;88.10;100012.44;5090276;28;20479;-67
2021/11/02 10:24:10;;;;;;;14.77;11.00;;;;;;;7.31;88.34;100001.38;5072013;28;20428;-64
2021/11/02 10:26:56;;;;;;;13.45;10.85;;;;;;;7.43;88.15;99997.53;5090087;28;20089;-68
2021/11/02 10:29:41;;;;;;;14.17;10.30;;;;;;;7.50;87.71;100000.41;5090201;28;20035;-68
2021/11/02 10:32:12;;;;;;;14.73;10.87;;;;;;;7.54;87.32;99996.47;5094047;28;20039;-67
2021/11/02 10:34:54;;;;;;;14.27;10.47;;;;;;;7.54;86.49;99995.59;5076202;28;20016;-66
2021/11/02 10:37:35;;;;;;;15.47;10.77;;;;;;;7.51;87.06;100002.03;5075660;28;20024;-67
2021/11/02 10:40:03;;;;;;;15.10;11.00;;;;;;;7.50;87.31;100000.41;5093880;28;20499;-66
2021/11/02 10:43:00;;;;;;;14.13;10.47;;;;;;;7.50;87.27;100003.06;5093804;28;20031;-64
2021/11/02 10:45:28;;;;;;;15.68;10.18;;;;;;;7.51;87.12;100001.22;5093520;28;20077;-63
2021/11/02 10:48:11;;;;;;;14.00;10.37;;;;;;;7.54;87.62;100006.22;5093767;28;20459;-63
2021/11/02 10:50:44;;;;;;;10.23;8.57;;;;;;;7.58;87.55;100002.28;5093556;28;20077;-63
2021/11/02 10:53:10;;;;;;;12.43;9.37;;;;;;;7.57;87.21;100004.09;5093741;28;20027;-66
2021/11/02 10:56:08;;;;;;;13.57;9.57;;;;;;;7.51;87.61;100002.03;5093706;28;20028;-69
2021/11/02 10:58:47;;;;;;;12.13;9.27;;;;;;;7.54;87.89;100004.41;5092870;28;20051;-65
2021/11/02 11:01:13;;;;;;;12.70;9.23;;;;;;;7.58;87.86;100000.47;5093519;28;20476;-65
2021/11/02 11:03:40;;;;;;;11.93;9.10;;;;;;;7.68;87.66;100002.19;5093757;28;20035;-66
2021/11/02 11:06:13;;;;;;;12.37;9.97;;;;;;;7.68;87.61;100007.50;5093419;28;20262;-64
2021/11/02 11:08:45;;;;;;;10.20;8.37;;;;;;;7.76;87.20;100003.09;5093482;28;20031;-64
2021/11/02 11:11:14;;;;;;;13.97;8.47;;;;;;;7.84;86.76;100002.34;5093527;28;20085;-66
2021/11/02 11:13:43;;;;;;;11.47;9.10;;;;;;;7.93;86.66;99996.09;5093581;28;20028;-66
2021/11/02 11:16:12;;;;;;;12.43;9.20;;;;;;;8.09;85.52;99999.84;5092318;28;20051;-66
2021/11/02 11:19:04;;;;;;;15.33;10.10;;;;;;;8.12;85.82;100000.38;5093480;28;20024;-65
2021/11/02 11:21:34;;;;;;;11.50;8.37;;;;;;;8.30;86.31;100000.31;5093357;28;20093;-68
2021/11/02 11:24:17;;;;;;;10.43;8.57;;;;;;;8.26;84.16;99991.00;5093028;28;20032;-73
2021/11/02 11:26:50;;;;;;;11.45;9.18;;;;;;;8.26;84.84;99996.31;5093055;28;20095;-73
2021/11/02 11:29:29;;;;;;;14.23;9.38;;;;;;;8.27;85.08;99990.03;5093118;28;20035;-76
2021/11/02 11:31:57;;;;;;;12.50;9.30;;;;;;;8.29;85.43;99996.00;5093186;28;20031;-75
2021/11/02 11:34:35;;;;;;;10.18;9.13;;;;;;;8.21;84.91;99988.00;5092858;28;20027;-74
2021/11/02 11:37:02;;;;;;;10.80;9.43;;;;;;;8.18;85.09;99992.78;5093009;28;20154;-74
2021/11/02 11:39:30;;;;;;;11.47;9.20;;;;;;;8.13;86.25;99995.91;5092464;28;20024;-77
2021/11/02 11:41:57;;;;;;;11.50;9.37;;;;;;;8.05;86.33;99986.06;5091057;28;20066;-73
2021/11/02 11:44:22;;;;;;;13.10;9.63;;;;;;;8.05;86.14;99994.03;5093179;28;20085;-69
2021/11/02 11:47:09;;;;;;;12.70;9.30;;;;;;;8.05;86.32;99990.53;5092936;28;20039;-74
2021/11/02 11:49:38;;;;;;;12.35;9.40;;;;;;;8.01;86.36;99981.22;5092370;28;20036;-82
2021/11/02 11:52:06;;;;;;;11.40;8.47;;;;;;;8.00;86.27;99982.19;5092711;28;20081;-77
2021/11/02 11:54:49;;;;;;;10.20;8.40;;;;;;;7.96;85.32;99984.34;5092232;28;20388;-73
2021/11/02 11:57:31;;;;;;;9.20;7.80;;;;;;;7.95;86.09;99991.47;5093046;28;20177;-72
2021/11/02 12:00:08;;;;;;;12.07;8.70;;;;;;;7.91;85.82;99987.47;5092571;28;20483;-65
2021/11/02 12:03:01;;;;;;;9.95;8.30;;;;;;;7.87;86.19;99983.44;5092305;28;20020;-64
2021/11/02 12:05:29;;;;;;;10.27;8.27;;;;;;;7.83;86.49;99987.41;5092116;28;20629;-65
2021/11/02 12:08:07;;;;;;;11.60;8.20;;;;;;;7.75;86.17;99988.19;5092276;28;20016;-63
2021/11/02 12:10:33;;;;;;;9.38;7.72;;;;;;;7.69;86.52;99983.47;5091610;28;20059;-65
2021/11/02 12:13:03;;;;;;;8.23;7.15;;;;;;;7.65;86.71;99985.59;5092020;28;20360;-65
2021/11/02 12:15:40;;;;;;;9.00;7.63;;;;;;;7.62;86.39;99979.78;5092193;28;20111;-66
2021/11/02 12:18:07;;;;;;;8.50;7.40;;;;;;;7.63;86.49;99978.81;5091905;28;20067;-65
2021/11/02 12:20:35;;;;;;;9.97;7.80;;;;;;;7.63;86.71;99982.28;5092212;28;20028;-65
2021/11/02 12:23:14;;;;;;;8.87;7.07;;;;;;;7.65;87.09;99982.94;5092046;28;20031;-65
2021/11/02 12:25:50;;;;;;;8.80;7.50;;;;;;;7.69;87.03;99980.81;5091775;28;20047;-66
2021/11/02 12:28:37;;;;;;;7.93;6.80;;;;;;;7.69;86.87;99982.66;5091842;28;20024;-65
2021/11/02 12:31:08;;;;;;;5.60;4.80;;;;;;;7.70;86.35;99979.84;5091905;28;20289;-65
2021/11/02 12:33:35;;;;;;;7.27;5.00;;;;;;;7.72;85.91;99990.28;5091875;28;20028;-66
2021/11/02 12:36:04;;;;;;;3.40;3.10;;;;;;;7.70;85.89;99987.81;5091834;28;20024;-65
2021/11/02 12:38:36;;;;;;;5.27;3.33;;;;;;;7.74;84.51;99985.69;5091674;28;20263;-66
2021/11/02 12:41:14;;;;;;;3.43;3.13;;;;;;;7.70;84.36;99985.16;5091664;28;20028;-66
2021/11/02 12:43:40;;;;;;;3.30;3.00;;;;;;;7.70;84.29;99992.28;5091626;28;20407;-66
2021/11/02 12:46:05;;;;;;;3.83;3.15;;;;;;;7.75;85.92;99988.19;5091736;28;20103;-65
2021/11/02 12:48:32;;;;;;;3.90;2.90;;;;;;;7.87;85.73;99983.44;5091584;28;20062;-66
2021/11/02 12:50:59;;;;;;;2.60;2.40;;;;;;;7.97;86.19;99984.19;5091462;28;20127;-66
2021/11/02 12:53:24;;;;;;;2.83;2.60;;;;;;;8.13;85.66;99994.06;5091040;28;20020;-65
2021/11/02 12:55:52;;;;;;;2.50;2.30;;;;;;;8.26;83.97;99980.38;5091324;28;20020;-66
2021/11/02 12:58:19;;;;;;;2.60;2.40;;;;;;;8.30;83.09;99981.75;5091288;28;20533;-65
2021/11/02 13:00:58;;;;;;;2.95;2.55;;;;;;;8.37;83.75;99989.91;5091300;28;20028;-65
2021/11/02 13:03:26;;;;;;;2.97;2.67;;;;;;;8.41;84.08;99977.97;5091168;28;20028;-66
2021/11/02 13:05:59;;;;;;;3.95;2.42;;;;;;;8.50;84.36;99986.84;5091193;28;20081;-65
2021/11/02 13:08:31;;;;;;;2.10;1.90;;;;;;;8.57;81.41;99992.34;5091133;28;20103;-65
2021/11/02 13:11:07;;;;;;;2.17;1.95;;;;;;;8.51;82.60;99987.66;5090861;28;20020;-66
2021/11/02 13:13:53;;;;;;;3.63;2.17;;;;;;;8.53;82.59;99988.34;5091209;28;20026;-64
2021/11/02 13:16:19;;;;;;;1.40;1.30;;;;;;;8.59;80.79;99993.03;5090804;28;20119;-63
2021/11/02 13:18:45;;;;;;;3.07;1.30;;;;;;;8.53;80.22;99997.13;5090915;28;20027;-63
2021/11/02 13:21:21;;;;;;;2.25;1.30;;;;;;;8.42;81.66;99994.75;5091022;28;20081;-64
2021/11/02 13:23:50;;;;;;;2.35;0.88;;;;;;;8.40;81.63;100000.19;5090620;28;20490;-64
2021/11/02 13:26:18;;;;;;;1.20;1.03;;;;;;;8.40;81.50;99997.53;5100571;22;20422;-65
2021/11/02 13:28:44;;;;;;;1.27;1.17;;;;;;;8.40;82.56;99997.53;5090741;28;20032;-65
2021/11/02 13:31:28;;;;;;;1.55;1.30;;;;;;;8.41;81.07;99993.91;5090923;28;20093;-64
2021/11/02 13:34:09;;;;;;;1.13;1.02;;;;;;;8.42;80.11;99986.78;5090766;28;20143;-65
2021/11/02 13:36:35;;;;;;;1.20;1.10;;;;;;;8.43;80.75;99993.72;5090697;28;20024;-65
2021/11/02 13:39:02;;;;;;;0.98;0.85;;;;;;;8.53;80.38;100004.28;5090836;28;20046;-65
2021/11/02 13:41:30;;;;;;;1.40;0.60;;;;;;;8.59;79.50;100003.66;5090491;28;20028;-66
2021/11/02 13:44:00;;;;;;;1.95;0.60;;;;;;;8.61;79.61;100001.66;5090706;28;20032;-65
2021/11/02 13:46:30;;;;;;;1.25;0.50;;;;;;;8.64;78.55;100009.31;5090769;28;20032;-66
2021/11/02 13:48:55;;;;;;;1.60;0.55;;;;;;;8.65;78.70;100008.31;5090497;28;20028;-66
2021/11/02 13:51:22;;;;;;;1.65;0.70;;;;;;;8.59;79.90;100007.13;5090726;28;20501;-66
2021/11/02 13:53:48;;;;;;;1.47;1.10;;;;;;;8.56;79.89;100007.47;5090595;28;20032;-66
2021/11/02 13:56:16;;;;;;;;;;;;;;;8.56;81.57;100018.09;5090815;28;20035;-64
2021/11/02 13:58:42;;;;;;;2.10;1.00;;;;;;;8.59;81.38;100023.06;5090415;28;19912;-66
2021/11/02 14:01:25;;;;;;;0.85;0.85;;;;;;;8.55;80.02;100019.06;5090428;28;20036;-67
2021/11/02 14:04:05;;;;;;;0.68;0.60;;;;;;;8.52;79.41;100023.84;5090518;28;20036;-65
2021/11/02 14:06:35;;;;;;;2.42;0.90;;;;;;;8.47;79.34;100021.69;5093983;28;20040;-63
2021/11/02 14:09:01;;;;;;;1.85;0.93;;;;;;;8.47;79.62;100016.38;5094335;28;20028;-67
2021/11/02 14:11:35;;;;;;;0.98;0.75;;;;;;;8.47;80.20;100021.69;5094541;28;20020;-66
2021/11/02 14:14:02;;;;;;;2.05;0.90;;;;;;;8.47;80.59;100017.22;5094820;28;20032;-64
2021/11/02 14:16:40;;;;;;;2.67;1.20;;;;;;;8.49;82.01;100024.19;5094615;28;20040;-63
2021/11/02 14:19:39;;;;;;;0.80;0.80;;;;;;;8.55;80.06;100020.88;5094398;28;20032;-64
2021/11/02 14:22:06;;;;;;;1.10;1.00;;;;;;;8.56;80.57;100017.25;5094392;28;20132;-62
2021/11/02 14:24:40;;;;;;;1.70;1.17;;;;;;;8.58;80.75;100021.41;5094111;28;20040;-63
2021/11/02 14:27:18;;;;;;;2.40;1.80;;;;;;;8.60;80.24;100023.91;5075973;28;20020;-64
2021/11/02 14:29:50;;;;;;;1.25;1.15;;;;;;;8.60;82.25;100034.53;5094207;28;20028;-63
2021/11/02 14:32:40;;;;;;;0.77;0.75;;;;;;;8.63;82.23;100037.69;5094203;28;20442;-62
2021/11/02 14:35:07;;;;;;;1.52;1.20;;;;;;;8.65;82.35;100034.88;5094291;28;20039;-67
2021/11/02 14:37:52;;;;;;;2.20;2.00;;;;;;;8.67;82.11;100040.88;5093890;28;20621;-66
2021/11/02 14:40:28;;;;;;;1.77;1.42;;;;;;;8.64;81.15;100046.47;5094047;28;20032;-66
2021/11/02 14:42:55;;;;;;;4.47;1.83;;;;;;;8.62;80.48;100045.81;5094001;28;20024;-64
2021/11/02 14:45:41;;;;;;;1.70;1.30;;;;;;;8.58;81.06;100049.78;5093985;28;20027;-66
2021/11/02 14:48:24;;;;;;;1.98;1.05;;;;;;;8.52;81.07;100050.41;5093793;28;20123;-66
2021/11/02 14:50:58;;;;;;;0.95;0.82;;;;;;;8.47;80.41;100045.59;5093666;28;20058;-64
2021/11/02 14:53:34;;;;;;;0.98;0.88;;;;;;;8.47;78.56;100051.72;5093600;28;20056;-66
2021/11/02 14:56:04;;;;;;;1.50;1.00;;;;;;;8.44;79.59;100054.66;5093727;28;20480;-67
2021/11/02 14:58:38;;;;;;;1.60;1.10;;;;;;;8.38;80.27;100055.28;5093480;28;20032;-63
2021/11/02 15:01:09;;;;;;;1.85;1.00;;;;;;;8.34;79.86;100056.59;5093548;28;20382;-66
2021/11/02 15:03:35;;;;;;;2.50;0.80;;;;;;;8.37;79.56;100063.41;5093607;28;20051;-66
2021/11/02 15:06:11;;;;;;;2.03;0.80;;;;;;;8.31;79.91;100067.50;5093531;28;20063;-66
2021/11/02 15:08:39;;;;;;;2.65;1.20;;;;;;;8.25;80.43;100066.31;5093576;28;20375;-64
2021/11/02 15:11:13;;;;;;;2.57;1.80;;;;;;;8.22;81.41;100068.44;5075316;28;20081;-66
2021/11/02 15:13:40;;;;;;;2.72;1.63;;;;;;;8.20;81.98;100065.94;5093332;28;20481;-66
2021/11/02 15:16:06;;;;;;;2.80;1.93;;;;;;;8.16;82.31;100067.25;5075072;28;20024;-66
2021/11/02 15:18:37;;;;;;;2.70;1.50;;;;;;;8.14;82.56;100069.22;5093114;28;20441;-62
2021/11/02 15:21:03;;;;;;;0.90;0.90;;;;;;;8.16;81.76;100066.44;5093295;28;20078;-65
2021/11/02 15:23:40;;;;;;;0.88;0.80;;;;;;;8.08;81.98;100072.50;5093006;28;20024;-65
2021/11/02 15:26:05;;;;;;;1.57;1.47;;;;;;;8.01;82.43;100071.44;5093193;28;20139;-63
2021/11/02 15:28:39;;;;;;;1.30;1.20;;;;;;;7.95;82.31;100068.41;5092816;28;20084;-65
2021/11/02 15:31:05;;;;;;;1.83;1.20;;;;;;;7.91;82.47;100064.41;5092853;28;20298;-65
2021/11/02 15:33:32;;;;;;;2.70;1.00;;;;;;;7.88;83.44;100061.22;5092684;28;20517;-62
2021/11/02 15:36:10;;;;;;;1.17;0.83;;;;;;;7.85;84.09;100070.31;5092917;28;20058;-63
2021/11/02 15:38:36;;;;;;;1.03;0.73;;;;;;;7.84;84.40;100067.81;5092618;28;20028;-65
2021/11/02 15:41:16;;;;;;;0.97;0.80;;;;;;;7.86;83.50;100068.50;5093316;28;20034;-64
2021/11/02 15:44:01;;;;;;;1.03;0.70;;;;;;;7.93;84.23;100066.88;5092543;28;20514;-66
2021/11/02 15:46:37;;;;;;;0.60;0.53;;;;;;;7.95;82.62;100073.72;5074439;28;20463;-65
2021/11/02 15:49:08;;;;;;;0.98;0.98;;;;;;;8.02;83.58;100073.09;5092412;28;20067;-65
2021/11/02 15:51:39;;;;;;;0.73;0.73;;;;;;;8.04;83.22;100079.09;5092522;28;20028;-66
2021/11/02 15:54:12;;;;;;;0.83;0.83;;;;;;;8.06;83.80;100080.59;5092475;28;20479;-66
2021/11/02 15:56:38;;;;;;;2.03;1.00;;;;;;;8.05;83.71;100084.25;5092579;28;20028;-66
2021/11/02 15:59:05;;;;;;;;;;;;;;;8.00;82.90;100086.53;5092590;28;20028;-67
2021/11/02 16:01:37;;;;;;;1.50;1.17;;;;;;;7.93;82.79;100093.41;5092538;28;20389;-64
2021/11/02 16:04:23;;;;;;;3.93;1.43;;;;;;;7.83;83.22;100096.16;5092196;28;20282;-64
2021/11/02 16:06:56;;;;;;;1.53;1.20;;;;;;;7.72;83.57;100097.22;5092134;28;20024;-66
2021/11/02 16:09:21;;;;;;;2.17;1.43;;;;;;;7.70;84.17;100098.38;5092151;28;20443;-66
2021/11/02 16:11:49;;;;;;;1.87;1.37;;;;;;;7.66;84.46;100097.81;5092189;28;20066;-63
2021/11/02 16:14:15;;;;;;;4.00;1.90;;;;;;;7.68;84.07;100093.19;5091732;28;20379;-62
2021/11/02 16:16:45;;;;;;;3.03;2.00;;;;;;;7.69;84.56;100091.38;5092127;28;20043;-65
2021/11/02 16:19:11;;;;;;;2.70;1.40;;;;;;;7.65;84.50;100094.31;5073648;28;20020;-64
2021/11/02 16:21:36;;;;;;;2.95;1.42;;;;;;;7.67;84.42;100094.19;5074076;28;20047;-65
2021/11/02 16:24:08;;;;;;;2.20;1.83;;;;;;;7.67;84.44;100093.34;5091791;28;20464;-63
2021/11/02 16:26:38;;;;;;;1.70;1.60;;;;;;;7.65;83.96;100104.94;5091539;28;20051;-64
2021/11/02 16:29:13;;;;;;;1.90;1.70;;;;;;;7.56;84.67;100100.53;5090982;28;20077;-62
2021/11/02 16:31:38;;;;;;;1.77;1.47;;;;;;;7.51;85.95;100102.78;5091633;28;20024;-62
2021/11/02 16:34:21;;;;;;;1.50;0.95;;;;;;;7.46;85.41;100103.25;5091592;28;20016;-62
2021/11/02 16:36:47;;;;;;;1.37;1.27;;;;;;;7.43;85.84;100098.25;5091921;28;20028;-64
2021/11/02 16:39:12;;;;;;;1.15;0.80;;;;;;;7.39;84.54;100109.31;5091702;28;20046;-62
2021/11/02 16:41:44;;;;;;;0.77;0.77;;;;;;;7.38;84.35;100107.63;5091368;28;20020;-65
2021/11/02 16:44:11;;;;;;;1.53;0.80;;;;;;;7.32;83.91;100115.19;5091365;28;20035;-62
2021/11/02 16:46:46;;;;;;;0.67;0.67;;;;;;;7.32;84.01;100127.63;5091107;28;20107;-63
2021/11/02 16:49:20;;;;;;;1.07;0.93;;;;;;;7.39;83.57;100135.81;5091579;28;20020;-62
2021/11/02 16:51:53;;;;;;;0.80;0.80;;;;;;;7.45;81.03;100140.53;5091610;28;20081;-63
2021/11/02 16:54:21;;;;;;;0.60;0.60;;;;;;;7.36;76.30;100142.25;5091474;28;20363;-64
2021/11/02 16:57:07;;;;;;;0.60;0.60;;;;;;;7.25;76.07;100155.69;5091331;28;20051;-63